Time;durP1;ratioP1;P1;durP2;ratioP2;P2;SDS_P1;SDS_P2;PMS_P1;PMS_P2;Temp;Humidity;BMP_temperature;BMP_pressure;BME280_temperature;BME280_humidity;BME280_pressure;Samples;Min_cycle;Max_cycle;Signal;HPM_P1;HPM_P2
2022/07/17 00:00:34;;;;;;;8.15;6.40;;;17.80;99.90;;;18.00;70.96;100868.19;5051233;28;20207;-76
2022/07/17 00:03:02;;;;;;;5.63;3.53;;;17.70;99.90;;;18.04;71.06;100875.25;5038719;28;20582;-77
2022/07/17 00:05:30;;;;;;;5.38;3.85;;;17.70;99.90;;;17.86;70.88;100866.59;5034388;28;20234;-77
2022/07/17 00:07:58;;;;;;;7.90;7.28;;;17.70;99.90;;;17.98;71.36;100878.03;5037253;28;20656;-77
2022/07/17 00:10:26;;;;;;;9.85;8.82;;;17.70;99.90;;;17.84;71.40;100880.91;5049559;28;20207;-76
2022/07/17 00:12:54;;;;;;;5.82;5.30;;;17.60;99.90;;;17.81;71.90;100880.94;5034987;28;20195;-77
2022/07/17 00:15:22;;;;;;;5.57;5.05;;;17.60;99.90;;;17.76;71.46;100875.66;5043748;28;20219;-76
2022/07/17 00:17:50;;;;;;;4.32;1.58;;;17.50;99.90;;;17.78;72.00;100883.66;5034654;28;20222;-76
2022/07/17 00:20:18;;;;;;;4.90;3.28;;;16.70;99.90;;;17.67;71.92;100874.88;5037001;28;20278;-76
2022/07/17 00:22:46;;;;;;;7.07;2.90;;;17.50;99.90;;;17.70;72.54;100893.56;5033439;28;20210;-76
2022/07/17 00:25:14;;;;;;;4.72;2.25;;;17.50;99.90;;;17.65;72.52;100893.59;5048911;28;20230;-76
2022/07/17 00:27:42;;;;;;;6.50;2.55;;;17.40;99.90;;;17.62;72.55;100892.75;5050037;28;20222;-76
2022/07/17 00:30:12;;;;;;;5.88;2.47;;;17.40;99.90;;;17.57;72.35;100895.47;5034924;28;20235;-77
2022/07/17 00:32:41;;;;;;;8.50;3.47;;;17.30;99.90;;;17.50;72.46;100905.38;5048252;28;20285;-76
2022/07/17 00:35:09;;;;;;;5.43;3.17;;;17.30;99.90;;;17.43;72.41;100903.66;5044443;28;20226;-76
2022/07/17 00:37:43;;;;;;;9.60;3.88;;;17.30;99.90;;;17.45;73.34;100917.91;5048607;28;20203;-77
2022/07/17 00:40:18;;;;;;;6.65;2.55;;;17.30;99.90;;;17.52;73.38;100935.66;5049717;28;20220;-76
2022/07/17 00:42:47;;;;;;;8.85;3.70;;;17.30;99.90;;;17.46;72.76;100929.50;5036249;28;20217;-76
2022/07/17 00:45:15;;;;;;;3.55;2.15;;;17.20;99.90;;;17.44;72.43;100929.50;5035543;28;20223;-77
2022/07/17 00:47:55;;;;;;;6.25;3.20;;;17.20;99.90;;;17.25;73.51;100923.47;5036706;28;20627;-77
2022/07/17 00:50:30;;;;;;;3.88;2.63;;;17.10;99.90;;;17.27;73.91;100932.38;5041938;28;20238;-76
2022/07/17 00:52:59;;;;;;;5.80;3.50;;;17.10;99.90;;;17.34;73.41;100941.22;5039558;28;20571;-76
2022/07/17 00:55:27;;;;;;;4.50;2.22;;;17.10;99.90;;;17.39;73.03;100963.44;5035108;28;20227;-76
2022/07/17 00:58:20;;;;;;;5.30;2.20;;;17.10;99.90;;;17.35;73.47;100953.66;5042804;28;20229;-76
2022/07/17 01:00:53;;;;;;;8.38;6.57;;;17.00;99.90;;;17.25;73.49;100949.31;5041094;28;20221;-77
2022/07/17 01:03:24;;;;;;;2.90;1.75;;;17.00;99.90;;;17.24;73.59;100950.22;5052164;28;20206;-76
2022/07/17 01:05:53;;;;;;;7.47;4.10;;;17.00;99.90;;;17.21;73.03;100942.25;5043524;28;20234;-76
2022/07/17 01:08:21;;;;;;;9.02;4.63;;;17.00;99.90;;;17.20;73.39;100948.47;5044093;28;20202;-76
2022/07/17 01:10:49;;;;;;;3.10;1.45;;;16.90;99.90;;;17.11;73.03;100941.44;5047287;28;20213;-76
2022/07/17 01:13:18;;;;;;;5.55;2.28;;;16.90;99.90;;;17.02;73.12;100927.28;5064213;28;20202;-76
2022/07/17 01:15:46;;;;;;;4.82;2.92;;;16.80;99.90;;;16.99;73.51;100940.66;5040310;28;20227;-76
2022/07/17 01:18:15;;;;;;;6.35;4.20;;;16.70;99.90;;;17.04;73.37;100952.19;5035917;28;20212;-76
2022/07/17 01:20:47;;;;;;;5.97;3.67;;;16.70;99.90;;;17.03;73.25;100950.44;5040589;28;20222;-77
2022/07/17 01:23:17;;;;;;;6.03;2.50;;;16.70;99.90;;;17.07;74.09;100963.75;5038225;28;20220;-76
2022/07/17 01:25:46;;;;;;;7.55;5.35;;;16.70;99.90;;;17.00;73.57;100963.81;5045846;28;20222;-76
2022/07/17 01:28:14;;;;;;;5.97;5.47;;;16.70;99.90;;;17.01;73.83;100973.59;5036360;28;20211;-76
2022/07/17 01:30:48;;;;;;;6.90;4.90;;;16.70;99.90;;;17.00;74.12;100979.84;5041952;28;20623;-77
2022/07/17 01:33:18;;;;;;;7.35;3.38;;;16.60;99.90;;;16.90;73.61;100968.31;5035700;28;20281;-77
2022/07/17 01:35:46;;;;;;;11.23;6.30;;;16.60;99.90;;;16.81;73.23;100957.72;5041363;28;20222;-76
2022/07/17 01:38:15;;;;;;;9.15;3.33;;;16.50;99.90;;;16.81;73.79;100965.72;5037942;28;20207;-76
2022/07/17 01:40:42;;;;;;;5.30;3.22;;;16.50;99.90;;;16.77;74.44;100972.88;5034929;28;20210;-76
2022/07/17 01:43:11;;;;;;;6.30;3.03;;;16.50;99.90;;;16.74;73.85;100964.00;5045484;28;20218;-76
2022/07/17 01:45:40;;;;;;;8.27;4.50;;;16.50;99.90;;;16.80;74.37;100988.00;5040514;28;20226;-76
2022/07/17 01:48:08;;;;;;;5.65;3.70;;;16.40;99.90;;;16.56;74.39;100976.56;5045250;28;20211;-76
2022/07/17 01:50:36;;;;;;;7.00;4.10;;;16.40;99.90;;;16.67;75.10;100992.53;5038263;28;20247;-77
2022/07/17 01:53:04;;;;;;;5.53;3.55;;;16.40;99.90;;;16.56;74.31;100979.22;5037735;28;20206;-76
2022/07/17 01:55:32;;;;;;;7.22;6.60;;;16.30;99.90;;;16.72;74.88;100996.06;5041978;28;20219;-76
2022/07/17 01:58:00;;;;;;;9.00;5.50;;;16.30;99.90;;;16.63;74.82;100999.66;5036081;28;20229;-76
2022/07/17 02:00:29;;;;;;;6.88;4.13;;;16.30;99.90;;;16.59;74.83;100999.69;5036731;28;20203;-76
2022/07/17 02:02:57;;;;;;;5.50;4.85;;;16.30;99.90;;;16.57;75.00;101001.47;5041074;28;20226;-77
2022/07/17 02:05:25;;;;;;;7.65;6.85;;;16.30;99.90;;;16.48;75.05;100988.19;5049574;28;20237;-77
2022/07/17 02:07:52;;;;;;;7.28;5.18;;;16.20;99.90;;;16.38;74.32;100981.13;5044416;28;20204;-76
2022/07/17 02:10:21;;;;;;;9.38;5.28;;;16.20;99.90;;;16.45;75.43;100998.88;5038680;28;20223;-76
2022/07/17 02:12:49;;;;;;;6.32;5.50;;;16.20;99.90;;;16.39;75.05;100990.91;5044846;28;20203;-76
2022/07/17 02:15:18;;;;;;;7.45;6.85;;;16.10;99.90;;;16.40;75.44;101003.38;5048734;28;20226;-77
2022/07/17 02:17:46;;;;;;;10.00;9.05;;;16.10;99.90;;;16.41;75.26;101010.47;5037834;28;20586;-77
2022/07/17 02:20:16;;;;;;;14.65;13.70;;;16.10;99.90;;;16.33;75.09;101015.84;5041983;28;20210;-76
2022/07/17 02:22:45;;;;;;;14.00;13.00;;;16.10;99.90;;;16.40;75.70;101030.94;5045902;28;20211;-77
2022/07/17 02:25:13;;;;;;;20.92;19.73;;;16.10;99.90;;;16.26;76.33;101031.00;5040574;28;20223;-76
2022/07/17 02:27:42;;;;;;;15.13;14.10;;;16.00;99.90;;;16.09;76.41;101018.66;5033923;28;20592;-76
2022/07/17 02:30:14;;;;;;;23.15;21.33;;;15.90;99.90;;;16.22;76.38;101042.59;5032978;28;20235;-75
2022/07/17 02:32:43;;;;;;;23.17;22.02;;;15.90;99.90;;;16.25;76.71;101052.38;5051114;28;20210;-77
2022/07/17 02:35:12;;;;;;;23.50;22.50;;;16.00;99.90;;;16.10;75.95;101028.44;5051648;28;20230;-76
2022/07/17 02:37:42;;;;;;;31.73;30.38;;;15.90;99.90;;;16.10;75.47;101028.44;5037538;28;20203;-77
2022/07/17 02:40:12;;;;;;;27.75;26.05;;;15.80;99.90;;;16.22;76.17;101047.94;5031553;28;20212;-76
2022/07/17 02:42:40;;;;;;;32.42;30.55;;;15.90;99.90;;;16.19;76.27;101053.28;5042625;28;20212;-77
2022/07/17 02:45:09;;;;;;;26.35;24.95;;;15.80;99.90;;;16.16;76.15;101058.63;5040178;28;20225;-76
2022/07/17 02:47:37;;;;;;;26.60;25.02;;;15.80;99.90;;;16.04;76.35;101044.47;5042342;28;20215;-76
2022/07/17 02:50:09;;;;;;;16.13;15.13;;;15.80;99.90;;;15.93;76.25;101037.38;5035489;28;20234;-76
2022/07/17 02:52:37;;;;;;;23.90;22.45;;;15.70;99.90;;;15.95;76.39;101037.38;5050069;28;20202;-77
2022/07/17 02:55:06;;;;;;;21.52;20.23;;;15.70;99.90;;;16.05;76.63;101060.47;5035441;28;20242;-75
2022/07/17 02:57:34;;;;;;;20.65;19.50;;;15.70;99.90;;;15.96;76.24;101048.03;5038286;28;20199;-76
2022/07/17 03:00:08;;;;;;;18.23;17.10;;;15.70;99.90;;;15.94;76.27;101063.16;5035331;28;20655;-76
2022/07/17 03:02:39;;;;;;;20.73;19.40;;;15.70;99.90;;;15.96;76.40;101063.16;5037327;28;20203;-76
2022/07/17 03:05:07;;;;;;;15.00;14.00;;;15.60;99.90;;;15.91;76.54;101062.28;5038602;28;20235;-76
2022/07/17 03:07:35;;;;;;;19.83;18.42;;;15.60;99.90;;;15.82;76.61;101064.97;5049801;28;20214;-76
2022/07/17 03:10:04;;;;;;;23.98;22.20;;;15.60;99.90;;;15.79;77.43;101062.31;5033237;28;20230;-76
2022/07/17 03:12:32;;;;;;;20.20;19.05;;;15.50;99.90;;;15.80;77.90;101077.44;5035079;28;20206;-76
2022/07/17 03:15:00;;;;;;;24.10;22.33;;;15.50;99.90;;;15.68;77.73;101068.56;5034244;28;20231;-76
2022/07/17 03:17:28;;;;;;;23.40;22.10;;;15.50;99.90;;;15.77;77.35;101072.97;5032739;28;20234;-76
2022/07/17 03:19:56;;;;;;;13.02;12.13;;;15.50;99.90;;;15.61;77.45;101065.91;5033632;28;20266;-76
2022/07/17 03:22:25;;;;;;;20.25;19.00;;;15.40;99.90;;;15.70;78.31;101089.00;5037552;28;20218;-76
2022/07/17 03:24:53;;;;;;;22.98;21.85;;;15.40;99.90;;;15.63;78.03;101091.66;5036222;28;20230;-76
2022/07/17 03:27:21;;;;;;;24.50;23.23;;;15.40;99.90;;;15.58;78.78;101093.41;5041967;28;20206;-76
2022/07/17 03:29:49;;;;;;;17.08;16.00;;;15.40;99.90;;;15.62;78.85;101102.34;5039077;28;20223;-76
2022/07/17 03:32:17;;;;;;;8.70;8.20;;;15.30;99.90;;;15.57;78.35;101101.38;5040762;28;20221;-75
2022/07/17 03:34:45;;;;;;;8.05;7.20;;;15.30;99.90;;;15.45;79.05;101104.94;5031286;28;20219;-76
2022/07/17 03:37:13;;;;;;;8.50;7.72;;;15.30;99.90;;;15.45;79.01;101104.06;5049663;28;20214;-76
2022/07/17 03:39:41;;;;;;;14.88;13.82;;;15.20;99.90;;;15.47;78.54;101113.84;5032030;28;20211;-76
2022/07/17 03:42:09;;;;;;;21.00;19.70;;;15.20;99.90;;;15.50;77.91;101113.84;5041676;28;20218;-76
2022/07/17 03:44:38;;;;;;;16.00;15.13;;;15.20;99.90;;;15.42;79.10;101118.28;5032956;28;20230;-76
2022/07/17 03:47:05;;;;;;;11.90;10.93;;;15.20;99.90;;;15.40;78.89;101124.50;5031512;28;20213;-76
2022/07/17 03:49:33;;;;;;;9.25;8.82;;;15.20;99.90;;;15.32;79.18;101116.50;5037444;28;20578;-76
2022/07/17 03:52:02;;;;;;;12.13;11.35;;;15.10;99.90;;;15.22;79.54;101117.38;5042325;28;20234;-76
2022/07/17 03:54:30;;;;;;;8.88;8.10;;;15.00;99.90;;;15.37;80.70;101157.38;5040147;28;20207;-76
2022/07/17 03:56:59;;;;;;;5.78;4.45;;;15.00;99.90;;;15.33;80.17;101164.47;5032183;28;20202;-76
2022/07/17 03:59:27;;;;;;;9.38;8.60;;;15.00;99.90;;;15.28;79.64;101160.91;5031942;28;20199;-76
2022/07/17 04:01:56;;;;;;;15.93;14.90;;;15.00;99.90;;;15.20;79.76;101157.34;5038581;28;20211;-75
2022/07/17 04:04:24;;;;;;;9.02;8.25;;;15.00;99.90;;;15.22;79.76;101163.56;5048683;28;20206;-76
2022/07/17 04:06:52;;;;;;;9.68;8.93;;;14.90;99.90;;;15.15;80.38;101167.09;5037051;28;20206;-76
2022/07/17 04:09:19;;;;;;;13.13;12.38;;;14.90;99.90;;;15.28;79.92;101190.22;5050876;28;20678;-76
2022/07/17 04:11:47;;;;;;;18.13;17.00;;;15.00;99.90;;;15.39;80.23;101208.91;5039274;28;20223;-76
2022/07/17 04:14:15;;;;;;;13.98;12.95;;;15.00;99.90;;;15.20;79.84;101189.31;5030614;28;20220;-76
2022/07/17 04:16:43;;;;;;;8.73;7.93;;;15.00;99.90;;;15.27;80.35;101204.44;5036678;28;20203;-77
2022/07/17 04:19:11;;;;;;;9.40;7.97;;;15.00;99.90;;;15.18;80.75;101209.75;5044678;28;20210;-76
2022/07/17 04:21:40;;;;;;;15.70;14.35;;;15.00;99.90;;;15.18;80.74;101198.19;5036549;28;20207;-76
2022/07/17 04:24:08;;;;;;;17.05;15.40;;;14.90;99.90;;;15.21;80.45;101208.88;5048182;28;20218;-77
2022/07/17 04:26:36;;;;;;;14.32;11.52;;;14.90;99.90;;;15.09;80.17;101200.84;5041394;28;20231;-76
2022/07/17 04:29:04;;;;;;;10.20;9.30;;;14.80;99.90;;;15.10;80.35;101206.16;5043201;28;20202;-77
2022/07/17 04:31:32;;;;;;;20.45;18.98;;;14.80;99.90;;;15.17;81.49;101223.94;5038828;28;20226;-77
2022/07/17 04:34:00;;;;;;;28.70;25.85;;;14.80;99.90;;;15.19;81.05;101235.50;5044461;28;20592;-77
2022/07/17 04:36:28;;;;;;;10.13;7.95;;;14.90;99.90;;;15.27;81.14;101248.84;5038457;28;20234;-77
2022/07/17 04:38:56;;;;;;;11.40;6.70;;;14.90;99.90;;;15.21;81.53;101249.72;5049825;28;20214;-76
2022/07/17 04:41:24;;;;;;;9.05;8.35;;;15.00;99.90;;;15.27;81.36;101260.41;5044309;28;20233;-75
2022/07/17 04:43:53;;;;;;;14.15;11.68;;;15.00;99.90;;;15.25;81.14;101262.16;5040286;28;20551;-79
2022/07/17 04:46:21;;;;;;;10.40;9.55;;;15.00;99.90;;;15.38;80.75;101276.41;5034422;28;20227;-75
2022/07/17 04:48:49;;;;;;;10.20;9.20;;;15.00;99.90;;;15.37;81.17;101280.84;5046748;28;20198;-77
2022/07/17 04:51:17;;;;;;;14.68;13.70;;;15.00;99.90;;;15.35;80.85;101268.41;5040700;28;20231;-77
2022/07/17 04:53:45;;;;;;;23.05;20.85;;;15.00;99.90;;;15.36;80.50;101276.41;5039451;28;20214;-76
2022/07/17 04:56:13;;;;;;;20.67;18.63;;;15.00;99.90;;;15.44;80.13;101278.22;5042481;28;20241;-76
2022/07/17 04:58:41;;;;;;;30.88;28.75;;;15.00;99.90;;;15.51;80.03;101296.00;5036205;28;20203;-77
2022/07/17 05:01:09;;;;;;;19.95;18.33;;;15.10;99.90;;;15.59;80.45;101307.59;5040198;28;20206;-77
2022/07/17 05:03:38;;;;;;;23.88;21.45;;;15.10;99.90;;;15.71;80.23;101322.78;5035632;28;20217;-78
2022/07/17 05:06:06;;;;;;;25.85;23.70;;;15.30;99.90;;;15.78;80.40;101343.25;5043280;28;20234;-76
2022/07/17 05:08:35;;;;;;;22.77;21.10;;;15.30;99.90;;;15.87;80.17;101361.94;5044771;28;20204;-76
2022/07/17 05:11:03;;;;;;;17.58;13.48;;;15.40;99.90;;;15.99;80.49;101380.63;5039876;28;20219;-77
2022/07/17 05:13:31;;;;;;;15.15;13.68;;;15.50;99.90;;;16.02;80.52;101385.97;5030507;28;20686;-76
2022/07/17 05:15:59;;;;;;;9.88;8.88;;;15.50;99.90;;;16.08;80.40;101395.75;5034690;28;20231;-77
2022/07/17 05:18:27;;;;;;;9.15;8.15;;;15.60;99.90;;;16.20;79.24;101388.66;5043333;28;20224;-77
2022/07/17 05:20:55;;;;;;;16.67;13.23;;;15.70;99.90;;;16.33;79.32;101400.25;5040359;28;20199;-77
2022/07/17 05:23:22;;;;;;;11.85;10.68;;;15.80;99.90;;;16.43;78.41;101403.81;5035478;28;20204;-77
2022/07/17 05:25:50;;;;;;;15.60;6.70;;;15.90;99.90;;;16.51;78.42;101407.38;5041646;28;20222;-77
2022/07/17 05:28:18;;;;;;;10.05;7.90;;;16.00;99.90;;;16.58;77.57;101407.38;5048235;28;20210;-78
2022/07/17 05:30:46;;;;;;;11.10;8.20;;;16.10;99.90;;;16.71;76.48;101388.69;5038152;28;20206;-78
2022/07/17 05:33:14;;;;;;;7.40;6.70;;;16.20;99.90;;;16.84;75.32;101383.34;5043357;28;20219;-78
2022/07/17 05:35:42;;;;;;;10.85;9.30;;;16.30;99.90;;;16.88;75.48;101378.88;5039222;28;20226;-77
2022/07/17 05:38:10;;;;;;;8.52;3.10;;;16.40;99.90;;;16.98;75.41;101385.13;5034224;28;20202;-78
2022/07/17 05:40:38;;;;;;;11.70;10.50;;;16.40;99.90;;;17.02;75.38;101377.09;5034238;28;20225;-78
2022/07/17 05:43:06;;;;;;;8.55;6.43;;;16.50;99.90;;;17.08;75.06;101365.50;5042831;28;20207;-77
2022/07/17 05:45:34;;;;;;;7.85;7.15;;;16.60;99.90;;;17.15;75.04;101373.50;5034746;28;20222;-77
2022/07/17 05:48:02;;;;;;;7.10;2.40;;;16.60;99.90;;;17.27;74.82;101384.16;5035922;28;20204;-78
2022/07/17 05:50:30;;;;;;;7.47;1.95;;;16.70;99.90;;;17.42;75.18;101398.38;5043086;28;20214;-77
2022/07/17 05:52:58;;;;;;;7.97;3.05;;;16.80;99.90;;;17.44;73.72;101372.50;5043315;28;20235;-76
2022/07/17 05:55:26;;;;;;;6.90;4.80;;;16.90;99.90;;;17.50;73.74;101367.13;5042586;28;20222;-77
2022/07/17 05:57:54;;;;;;;11.68;7.25;;;17.00;99.90;;;17.58;73.94;101366.19;5039036;28;20211;-78
2022/07/17 06:00:22;;;;;;;6.00;4.43;;;17.00;99.90;;;17.76;73.74;101377.75;5046923;28;20206;-78
2022/07/17 06:02:50;;;;;;;7.65;5.80;;;17.20;99.90;;;17.87;73.82;101387.47;5034794;28;20233;-77
2022/07/17 06:05:18;;;;;;;8.00;5.65;;;17.30;99.90;;;17.71;72.73;101348.34;5045993;28;20595;-78
2022/07/17 06:07:47;;;;;;;4.30;3.13;;;17.30;99.90;;;17.84;72.57;101350.03;5040742;28;20595;-79
2022/07/17 06:10:15;;;;;;;7.50;3.97;;;17.30;99.90;;;17.83;72.34;101345.59;5047529;28;20697;-77
2022/07/17 06:12:43;;;;;;;7.80;7.15;;;17.40;99.90;;;17.98;72.54;101349.06;5032880;28;20233;-77
2022/07/17 06:15:11;;;;;;;6.63;6.20;;;17.50;99.90;;;18.07;72.29;101351.66;5044344;28;20219;-78
2022/07/17 06:17:40;;;;;;;9.20;8.32;;;17.60;99.90;;;18.17;72.43;101356.94;5047717;28;20268;-78
2022/07/17 06:20:13;;;;;;;12.60;11.23;;;17.70;99.90;;;18.38;72.55;101369.31;5052779;28;20207;-78
2022/07/17 06:22:43;;;;;;;10.23;9.45;;;17.80;99.90;;;18.40;72.46;101370.19;5038732;28;20215;-78
2022/07/17 06:25:12;;;;;;;15.40;14.30;;;18.00;99.90;;;18.60;71.27;101361.97;5045476;28;20336;-78
2022/07/17 06:27:41;;;;;;;12.48;11.75;;;18.10;99.90;;;18.45;70.71;101336.22;5043000;28;20683;-78
2022/07/17 06:30:12;;;;;;;9.90;9.02;;;18.10;99.90;;;18.58;71.27;101347.69;5032940;28;20581;-78
2022/07/17 06:32:40;;;;;;;13.55;12.55;;;18.10;99.90;;;18.51;71.46;101325.44;5034475;28;20244;-78
2022/07/17 06:35:09;;;;;;;11.18;10.45;;;18.10;99.90;;;18.84;71.49;101356.41;5032792;28;20223;-78
2022/07/17 06:37:38;;;;;;;10.95;10.10;;;18.20;99.90;;;19.07;71.07;101356.16;5049872;28;20211;-79
2022/07/17 06:40:07;;;;;;;19.95;18.77;;;18.40;99.90;;;19.18;71.45;101362.28;5053701;28;20214;-79
2022/07/17 06:42:35;;;;;;;20.05;18.33;;;18.60;99.90;;;19.15;71.29;101340.88;5052408;28;20211;-79
2022/07/17 06:45:03;;;;;;;8.50;7.78;;;18.70;99.90;;;19.48;71.40;101370.88;5033554;28;20235;-80
2022/07/17 06:47:31;;;;;;;15.43;14.23;;;18.90;99.90;;;19.52;71.33;101355.66;5032670;28;20226;-79
2022/07/17 06:49:59;;;;;;;12.27;11.35;;;19.00;99.90;;;19.53;71.00;101336.00;5043647;28;20202;-79
2022/07/17 06:52:27;;;;;;;18.15;17.05;;;19.10;99.90;;;19.57;70.47;101325.19;5053466;28;20242;-79
2022/07/17 06:54:57;;;;;;;14.70;13.65;;;19.10;99.90;;;19.80;69.36;101333.81;5049883;28;20218;-79
2022/07/17 06:57:26;;;;;;;13.65;12.68;;;19.20;99.90;;;19.75;69.04;101292.72;5052977;28;20217;-79
2022/07/17 06:59:54;;;;;;;15.63;14.27;;;19.40;99.90;;;19.92;68.25;101297.84;5048877;28;20229;-77
2022/07/17 07:02:22;;;;;;;12.90;12.07;;;19.40;99.90;;;20.09;68.17;101298.47;5035085;28;20222;-78
2022/07/17 07:04:50;;;;;;;11.13;10.00;;;19.60;99.90;;;20.44;68.34;101310.44;5033321;28;20230;-79
2022/07/17 07:07:18;;;;;;;12.10;11.10;;;19.80;99.90;;;20.45;67.41;101283.53;5046728;28;20219;-79
2022/07/17 07:09:46;;;;;;;13.05;11.93;;;20.00;99.90;;;20.36;67.56;101258.59;5039126;28;20286;-79
2022/07/17 07:12:14;;;;;;;16.75;15.65;;;20.00;99.90;;;20.57;66.25;101263.59;5048282;28;20233;-80
2022/07/17 07:14:42;;;;;;;28.42;26.77;;;20.10;99.90;;;20.88;66.57;101277.38;5051246;28;20238;-78
2022/07/17 07:17:10;;;;;;;19.48;17.83;;;20.30;99.90;;;20.70;65.09;101224.81;5050484;28;20222;-79
2022/07/17 07:19:40;;;;;;;20.17;18.73;;;20.40;99.90;;;20.76;65.92;101229.19;5033836;28;20264;-80
2022/07/17 07:22:08;;;;;;;20.48;18.90;;;20.40;99.90;;;21.00;66.16;101247.53;5037536;28;20206;-79
2022/07/17 07:24:36;;;;;;;14.38;13.52;;;20.60;99.90;;;20.95;65.09;101208.22;5039017;28;20258;-79
2022/07/17 07:27:04;;;;;;;12.38;11.55;;;20.70;99.90;;;21.38;64.63;101227.00;5031914;28;20203;-80
2022/07/17 07:29:32;;;;;;;20.77;19.42;;;20.80;99.90;;;21.39;64.25;101192.00;5036761;28;20222;-79
2022/07/17 07:32:00;;;;;;;18.67;17.75;;;21.00;99.90;;;21.58;63.96;101178.97;5042121;28;20230;-77
2022/07/17 07:34:28;;;;;;;17.13;15.82;;;21.20;99.90;;;21.41;64.17;101143.53;5043426;28;20211;-78
2022/07/17 07:36:56;;;;;;;15.82;14.80;;;21.20;99.90;;;21.52;63.57;101137.88;5031507;28;20223;-78
2022/07/17 07:39:25;;;;;;;16.45;15.30;;;21.30;99.90;;;21.97;63.74;101173.50;5035769;28;20214;-80
2022/07/17 07:41:52;;;;;;;16.48;14.88;;;21.40;99.90;;;21.72;63.15;101119.41;5033116;28;20211;-79
2022/07/17 07:44:21;;;;;;;10.35;9.38;;;21.60;99.90;;;21.85;63.14;101123.56;5033103;28;20210;-79
2022/07/17 07:46:59;;;;;;;6.18;5.53;;;21.50;99.90;;;21.95;63.25;101125.06;5034433;28;20358;-79
2022/07/17 07:49:27;;;;;;;9.60;6.70;;;21.60;99.90;;;22.16;61.30;101093.16;5033601;28;20195;-78
2022/07/17 07:51:56;;;;;;;10.40;9.20;;;21.90;99.90;;;22.20;61.94;101084.94;5041280;28;20207;-79
2022/07/17 07:54:32;;;;;;;17.15;15.55;;;21.90;99.90;;;22.68;61.58;101109.56;5033457;28;20222;-78
2022/07/17 07:57:00;;;;;;;9.82;7.75;;;22.40;99.90;;;22.40;60.68;101041.25;5039869;28;20202;-80
2022/07/17 07:59:33;;;;;;;15.25;13.98;;;22.50;99.90;;;22.90;61.47;101088.25;5052084;28;20207;-79
2022/07/17 08:02:01;;;;;;;11.13;10.15;;;22.80;99.90;;;22.97;61.89;101078.16;5042747;28;20207;-80
2022/07/17 08:04:30;;;;;;;12.98;11.77;;;22.80;99.90;;;23.03;60.51;101050.97;5050291;28;20206;-79
2022/07/17 08:06:58;;;;;;;10.23;9.05;;;22.90;99.90;;;23.20;59.86;101031.53;5039367;28;20210;-79
2022/07/17 08:09:26;;;;;;;9.77;8.88;;;23.00;99.90;;;22.84;59.95;100969.78;5038974;28;20202;-79
2022/07/17 08:11:54;;;;;;;7.95;7.18;;;23.10;99.90;;;23.34;59.92;101012.16;5037021;28;20202;-79
2022/07/17 08:14:28;;;;;;;7.13;2.97;;;23.10;99.90;;;23.27;59.19;100974.59;5035345;28;20230;-80
2022/07/17 08:17:03;;;;;;;7.85;7.15;;;23.30;99.90;;;23.23;59.33;100959.44;5035160;28;20215;-80
2022/07/17 08:19:34;;;;;;;6.22;5.00;;;23.30;99.90;;;22.81;59.70;100899.75;5043253;28;20195;-79
2022/07/17 08:22:16;;;;;;;4.22;2.30;;;23.00;99.90;;;23.48;58.71;100959.50;5034157;28;20206;-79
2022/07/17 08:24:48;;;;;;;5.30;1.85;;;23.40;99.90;;;23.82;59.90;101010.50;5039454;28;20227;-79
2022/07/17 08:27:16;;;;;;;3.80;1.55;;;23.60;99.90;;;23.69;58.48;100925.44;5041879;28;20202;-80
2022/07/17 08:29:44;;;;;;;4.53;1.55;;;23.70;99.90;;;23.92;59.05;100948.91;5047258;28;20718;-80
2022/07/17 08:32:29;;;;;;;11.48;2.55;;;23.70;99.90;;;24.03;57.88;100913.38;5038912;28;20230;-80
2022/07/17 08:34:57;;;;;;;5.20;1.65;;;24.10;99.90;;;23.81;57.57;100870.97;5035200;28;20230;-81
2022/07/17 08:37:25;;;;;;;5.80;4.20;;;23.90;99.90;;;23.96;58.45;100903.75;5044253;28;20246;-80
2022/07/17 08:39:56;;;;;;;6.28;1.80;;;23.90;99.90;;;24.08;58.12;100897.84;5049803;28;20211;-80
2022/07/17 08:42:31;;;;;;;3.55;1.10;;;24.10;99.90;;;24.24;58.61;100913.41;5061212;28;20206;-80
2022/07/17 08:44:59;;;;;;;4.53;1.33;;;24.20;99.90;;;24.95;58.16;100970.06;5031690;28;20713;-79
2022/07/17 08:47:27;;;;;;;5.88;1.42;;;24.80;99.90;;;24.90;58.15;100929.69;5044245;28;20210;-80
2022/07/17 08:49:55;;;;;;;5.53;1.25;;;25.00;99.90;;;24.70;56.46;100859.28;5037947;28;20198;-80
2022/07/17 08:52:24;;;;;;;3.78;0.90;;;24.90;99.90;;;24.62;55.85;100813.63;5046606;28;20198;-80
2022/07/17 08:54:51;;;;;;;4.45;1.00;;;24.70;99.80;;;24.99;54.24;100796.72;5045841;28;20226;-79
2022/07/17 08:57:20;;;;;;;5.30;1.38;;;25.20;98.60;;;25.06;56.39;100827.97;5038959;28;20198;-80
2022/07/17 08:59:49;;;;;;;7.40;1.60;;;25.20;99.90;;;25.64;56.23;100879.47;5045414;28;20210;-79
2022/07/17 09:02:17;;;;;;;7.85;1.92;;;25.60;99.90;;;25.19;55.17;100785.88;5040204;28;20294;-79
2022/07/17 09:04:53;;;;;;;2.80;0.70;;;25.80;98.60;;;25.62;55.73;100827.22;5037657;28;20245;-80
2022/07/17 09:07:22;;;;;;;3.92;1.00;;;25.60;99.10;;;25.33;55.02;100751.88;5036121;28;20209;-79
2022/07/17 09:09:53;;;;;;;9.00;2.22;;;25.40;97.80;;;25.53;54.45;100758.09;5044720;28;20675;-80
2022/07/17 09:12:27;;;;;;;5.03;1.25;;;25.80;97.80;;;25.87;55.15;100788.16;5044756;28;20210;-79
2022/07/17 09:14:56;;;;;;;6.57;1.48;;;26.00;99.10;;;25.96;54.73;100777.72;5046193;28;20239;-80
2022/07/17 09:17:28;;;;;;;6.93;1.55;;;26.40;97.40;;;26.02;54.22;100750.34;5044904;28;20210;-80
2022/07/17 09:19:56;;;;;;;6.32;1.55;;;25.40;96.40;;;26.51;54.21;100788.56;5037796;28;20213;-79
2022/07/17 09:22:31;;;;;;;6.75;1.50;;;27.00;98.10;;;26.54;54.89;100779.41;5041081;28;20225;-80
2022/07/17 09:25:00;;;;;;;7.95;1.92;;;27.20;97.30;;;26.26;54.30;100693.16;5046061;28;20233;-79
2022/07/17 09:27:32;;;;;;;5.00;1.17;;;27.30;95.20;;;26.53;53.70;100705.28;5043003;28;20213;-80
2022/07/17 09:30:05;;;;;;;7.75;1.75;;;27.10;94.10;;;27.77;52.92;100774.59;5042273;28;20209;-78
2022/07/17 09:32:43;;;;;;;10.57;2.22;;;27.70;95.70;;;27.33;52.90;100639.44;5043314;28;20206;-79
2022/07/17 09:35:16;;;;;;;5.10;1.27;;;28.30;93.40;;;26.43;53.35;100523.19;5052207;28;20221;-81
2022/07/17 09:37:53;;;;;;;5.57;1.30;;;27.90;92.30;;;26.42;52.09;100513.31;5037220;28;20217;-81
2022/07/17 09:43:18;;;;;;;3.20;0.70;;;27.80;90.30;;;27.41;52.25;100604.56;5041520;28;20217;-81
2022/07/17 09:45:46;;;;;;;5.07;1.20;;;28.20;92.60;;;27.19;50.90;100530.69;5038368;28;20233;-81
2022/07/17 09:48:15;;;;;;;6.22;1.42;;;28.40;90.40;;;26.70;52.82;100485.50;5042176;28;20212;-81
2022/07/17 09:50:44;;;;;;;4.10;0.93;;;27.80;90.90;;;26.75;52.10;100482.53;5036552;28;20574;-80
2022/07/17 09:53:12;;;;;;;4.90;1.30;;;27.50;89.10;;;29.01;51.21;100702.81;5040617;28;20218;-81
2022/07/17 09:55:44;;;;;;;4.93;1.08;;;28.80;92.30;;;28.68;51.43;100623.16;5045712;28;20625;-78
2022/07/17 09:58:20;;;;;;;6.13;1.40;;;29.90;91.50;;;27.60;50.56;100452.22;5038753;28;20202;-80
2022/07/17 10:00:48;;;;;;;6.05;1.40;;;29.90;85.10;;;27.50;50.28;100415.72;5049818;28;20210;-80
2022/07/17 10:03:25;;;;;;;6.78;1.83;;;29.60;85.10;;;27.08;52.36;100420.91;5041685;28;20198;-79
2022/07/17 10:05:54;;;;;;;4.85;1.33;;;28.60;86.40;;;27.99;51.52;100514.13;5049924;28;20217;-79
2022/07/17 10:08:26;;;;;;;8.30;2.00;;;28.90;87.40;;;28.75;51.48;100580.09;5044747;28;20229;-79
2022/07/17 10:10:55;;;;;;;8.05;1.83;;;30.00;89.20;;;28.58;50.73;100536.72;5026525;28;20210;-79
2022/07/17 10:13:25;;;;;;;8.95;2.13;;;30.30;84.90;;;28.43;52.06;100511.38;5042495;28;20225;-79
2022/07/17 10:15:55;;;;;;;4.75;1.13;;;30.10;85.10;;;28.40;50.91;100483.50;5062080;28;20228;-79
2022/07/17 10:18:35;;;;;;;4.43;1.25;;;30.00;82.90;;;27.91;50.98;100422.19;5038932;28;20220;-79